sensor_id;sensor_type;location;lat;lon;timestamp;pressure;altitude;pressure_sealevel;temperature;humidity
26489;BME280;14169;43.684;10.484;2023-02-01T00:01:53;102386.16;;;5.94;100.00
26489;BME280;14169;43.684;10.484;2023-02-01T00:04:19;102387.81;;;5.89;100.00
26489;BME280;14169;43.684;10.484;2023-02-01T00:06:44;102383.47;;;5.88;100.00
26489;BME280;14169;43.684;10.484;2023-02-01T00:09:09;102385.09;;;5.81;100.00
26489;BME280;14169;43.684;10.484;2023-02-01T00:11:35;102383.38;;;5.78;100.00
26489;BME280;14169;43.684;10.484;2023-02-01T00:14:00;102379.00;;;5.76;100.00
26489;BME280;14169;43.684;10.484;2023-02-01T00:16:28;102386.78;;;5.77;100.00
26489;BME280;14169;43.684;10.484;2023-02-01T00:18:59;102385.91;;;5.77;100.00
26489;BME280;14169;43.684;10.484;2023-02-01T00:21:25;102390.16;;;5.72;100.00
26489;BME280;14169;43.684;10.484;2023-02-01T00:23:50;102385.72;;;5.63;100.00
26489;BME280;14169;43.684;10.484;2023-02-01T00:26:18;102384.69;;;5.52;100.00
26489;BME280;14169;43.684;10.484;2023-02-01T00:28:45;102387.31;;;5.55;100.00
26489;BME280;14169;43.684;10.484;2023-02-01T00:31:10;102379.63;;;5.58;100.00
26489;BME280;14169;43.684;10.484;2023-02-01T00:33:36;102384.81;;;5.61;100.00
26489;BME280;14169;43.684;10.484;2023-02-01T00:36:04;102375.34;;;5.60;100.00
26489;BME280;14169;43.684;10.484;2023-02-01T00:38:30;102371.88;;;5.58;100.00
26489;BME280;14169;43.684;10.484;2023-02-01T00:41:23;102379.56;;;5.57;100.00
26489;BME280;14169;43.684;10.484;2023-02-01T00:43:49;102377.84;;;5.56;100.00
26489;BME280;14169;43.684;10.484;2023-02-01T00:46:17;102367.53;;;5.56;100.00
26489;BME280;14169;43.684;10.484;2023-02-01T00:48:43;102377.84;;;5.56;100.00
26489;BME280;14169;43.684;10.484;2023-02-01T00:51:11;102368.34;;;5.55;100.00
26489;BME280;14169;43.684;10.484;2023-02-01T00:53:37;102377.00;;;5.57;100.00
26489;BME280;14169;43.684;10.484;2023-02-01T00:56:03;102378.59;;;5.49;100.00
26489;BME280;14169;43.684;10.484;2023-02-01T00:58:30;102381.09;;;5.43;100.00
26489;BME280;14169;43.684;10.484;2023-02-01T01:01:06;102381.97;;;5.45;100.00
26489;BME280;14169;43.684;10.484;2023-02-01T01:03:33;102388.03;;;5.45;100.00
26489;BME280;14169;43.684;10.484;2023-02-01T01:06:00;102380.25;;;5.44;100.00
26489;BME280;14169;43.684;10.484;2023-02-01T01:08:26;102376.78;;;5.42;100.00
26489;BME280;14169;43.684;10.484;2023-02-01T01:10:52;102373.38;;;5.44;100.00
26489;BME280;14169;43.684;10.484;2023-02-01T01:13:18;102375.09;;;5.45;100.00
26489;BME280;14169;43.684;10.484;2023-02-01T01:15:43;102372.53;;;5.45;100.00
26489;BME280;14169;43.684;10.484;2023-02-01T01:18:09;102366.53;;;5.46;100.00
26489;BME280;14169;43.684;10.484;2023-02-01T01:20:36;102380.34;;;5.50;100.00
26489;BME280;14169;43.684;10.484;2023-02-01T01:23:03;102365.72;;;5.52;100.00
26489;BME280;14169;43.684;10.484;2023-02-01T01:25:28;102374.38;;;5.54;100.00
26489;BME280;14169;43.684;10.484;2023-02-01T01:27:54;102367.44;;;5.53;100.00
26489;BME280;14169;43.684;10.484;2023-02-01T01:30:19;102357.16;;;5.54;100.00
26489;BME280;14169;43.684;10.484;2023-02-01T01:32:45;102363.19;;;5.55;100.00
26489;BME280;14169;43.684;10.484;2023-02-01T01:35:10;102363.19;;;5.55;100.00
26489;BME280;14169;43.684;10.484;2023-02-01T01:37:36;102357.19;;;5.57;100.00
26489;BME280;14169;43.684;10.484;2023-02-01T01:40:02;102353.72;;;5.57;100.00
26489;BME280;14169;43.684;10.484;2023-02-01T01:42:28;102353.78;;;5.58;100.00
26489;BME280;14169;43.684;10.484;2023-02-01T01:45:19;102349.44;;;5.56;100.00
26489;BME280;14169;43.684;10.484;2023-02-01T01:47:48;102354.59;;;5.56;100.00
26489;BME280;14169;43.684;10.484;2023-02-01T01:50:18;102350.25;;;5.55;100.00
26489;BME280;14169;43.684;10.484;2023-02-01T01:52:48;102345.97;;;5.55;100.00
26489;BME280;14169;43.684;10.484;2023-02-01T01:55:16;102342.50;;;5.53;100.00
26489;BME280;14169;43.684;10.484;2023-02-01T01:57:48;102335.59;;;5.54;100.00
26489;BME280;14169;43.684;10.484;2023-02-01T02:00:17;102337.31;;;5.53;100.00
26489;BME280;14169;43.684;10.484;2023-02-01T02:02:47;102332.94;;;5.48;100.00
26489;BME280;14169;43.684;10.484;2023-02-01T02:05:13;102320.81;;;5.42;100.00
26489;BME280;14169;43.684;10.484;2023-02-01T02:07:43;102322.44;;;5.37;100.00
26489;BME280;14169;43.684;10.484;2023-02-01T02:10:11;102317.97;;;5.27;100.00
26489;BME280;14169;43.684;10.484;2023-02-01T02:12:39;102323.09;;;5.23;100.00
26489;BME280;14169;43.684;10.484;2023-02-01T02:15:10;102320.41;;;5.17;100.00
26489;BME280;14169;43.684;10.484;2023-02-01T02:31:40;102329.06;;;5.19;100.00
26489;BME280;14169;43.684;10.484;2023-02-01T02:40:36;102320.34;;;5.12;100.00
26489;BME280;14169;43.684;10.484;2023-02-01T02:43:22;102316.75;;;5.04;100.00
26489;BME280;14169;43.684;10.484;2023-02-01T02:46:24;102309.78;;;4.99;100.00
26489;BME280;14169;43.684;10.484;2023-02-01T02:51:50;102315.81;;;4.99;100.00
26489;BME280;14169;43.684;10.484;2023-02-01T02:54:40;102319.34;;;5.03;100.00
26489;BME280;14169;43.684;10.484;2023-02-01T02:57:24;102317.66;;;5.05;100.00
26489;BME280;14169;43.684;10.484;2023-02-01T03:00:12;102308.25;;;5.10;100.00
26489;BME280;14169;43.684;10.484;2023-02-01T03:02:58;102317.78;;;5.14;100.00
26489;BME280;14169;43.684;10.484;2023-02-01T03:05:47;102328.97;;;5.13;100.00
26489;BME280;14169;43.684;10.484;2023-02-01T03:08:16;102322.91;;;5.11;100.00
26489;BME280;14169;43.684;10.484;2023-02-01T03:21:39;102334.97;;;5.12;100.00
26489;BME280;14169;43.684;10.484;2023-02-01T03:24:12;102327.13;;;5.06;100.00
26489;BME280;14169;43.684;10.484;2023-02-01T03:26:42;102328.81;;;5.04;100.00
26489;BME280;14169;43.684;10.484;2023-02-01T03:29:14;102335.66;;;5.02;100.00
26489;BME280;14169;43.684;10.484;2023-02-01T03:31:42;102331.34;;;5.01;100.00
26489;BME280;14169;43.684;10.484;2023-02-01T03:34:08;102329.59;;;5.00;100.00
26489;BME280;14169;43.684;10.484;2023-02-01T03:36:38;102338.16;;;4.97;100.00
26489;BME280;14169;43.684;10.484;2023-02-01T03:41:41;102337.25;;;4.93;100.00
26489;BME280;14169;43.684;10.484;2023-02-01T03:44:23;102334.69;;;4.95;100.00
26489;BME280;14169;43.684;10.484;2023-02-01T03:46:59;102332.16;;;4.98;100.00
26489;BME280;14169;43.684;10.484;2023-02-01T03:49:46;102344.16;;;4.94;100.00
26489;BME280;14169;43.684;10.484;2023-02-01T03:52:17;102338.09;;;4.92;100.00
26489;BME280;14169;43.684;10.484;2023-02-01T03:54:45;102327.81;;;4.95;100.00
26489;BME280;14169;43.684;10.484;2023-02-01T03:57:13;102333.00;;;4.97;100.00
26489;BME280;14169;43.684;10.484;2023-02-01T03:59:43;102339.88;;;4.97;100.00
26489;BME280;14169;43.684;10.484;2023-02-01T04:02:09;102342.47;;;4.97;100.00
26489;BME280;14169;43.684;10.484;2023-02-01T04:04:35;102339.84;;;4.95;100.00
26489;BME280;14169;43.684;10.484;2023-02-01T04:07:00;102344.16;;;4.94;100.00
26489;BME280;14169;43.684;10.484;2023-02-01T04:09:26;102345.88;;;4.94;100.00
26489;BME280;14169;43.684;10.484;2023-02-01T04:11:51;102340.63;;;4.91;100.00
26489;BME280;14169;43.684;10.484;2023-02-01T04:14:17;102339.78;;;4.90;100.00
26489;BME280;14169;43.684;10.484;2023-02-01T04:16:42;102347.53;;;4.90;100.00
26489;BME280;14169;43.684;10.484;2023-02-01T04:19:08;102353.59;;;4.94;100.00
26489;BME280;14169;43.684;10.484;2023-02-01T04:21:33;102351.84;;;4.91;100.00
26489;BME280;14169;43.684;10.484;2023-02-01T04:23:58;102350.22;;;4.97;100.00
26489;BME280;14169;43.684;10.484;2023-02-01T04:26:24;102350.31;;;5.03;100.00
26489;BME280;14169;43.684;10.484;2023-02-01T04:28:49;102342.59;;;5.06;100.00
26489;BME280;14169;43.684;10.484;2023-02-01T04:31:16;102358.09;;;5.04;100.00
26489;BME280;14169;43.684;10.484;2023-02-01T04:33:42;102357.97;;;4.97;100.00
26489;BME280;14169;43.684;10.484;2023-02-01T04:36:08;102356.06;;;4.86;100.00
26489;BME280;14169;43.684;10.484;2023-02-01T04:38:33;102342.22;;;4.83;100.00
26489;BME280;14169;43.684;10.484;2023-02-01T04:40:59;102339.63;;;4.81;100.00
26489;BME280;14169;43.684;10.484;2023-02-01T04:43:25;102349.13;;;4.82;100.00
26489;BME280;14169;43.684;10.484;2023-02-01T04:45:51;102355.13;;;4.83;100.00
26489;BME280;14169;43.684;10.484;2023-02-01T04:48:18;102359.44;;;4.82;100.00
26489;BME280;14169;43.684;10.484;2023-02-01T04:50:45;102354.22;;;4.79;100.00
26489;BME280;14169;43.684;10.484;2023-02-01T04:53:16;102362.94;;;4.86;100.00
26489;BME280;14169;43.684;10.484;2023-02-01T04:55:42;102361.28;;;4.89;100.00
26489;BME280;14169;43.684;10.484;2023-02-01T04:58:08;102362.16;;;4.90;100.00
26489;BME280;14169;43.684;10.484;2023-02-01T05:00:34;102363.88;;;4.91;100.00
26489;BME280;14169;43.684;10.484;2023-02-01T05:02:59;102363.94;;;4.94;100.00
26489;BME280;14169;43.684;10.484;2023-02-01T05:05:25;102358.78;;;4.94;100.00
26489;BME280;14169;43.684;10.484;2023-02-01T05:07:51;102357.09;;;4.96;100.00
26489;BME280;14169;43.684;10.484;2023-02-01T05:10:16;102361.44;;;4.99;100.00
26489;BME280;14169;43.684;10.484;2023-02-01T05:12:43;102360.59;;;5.01;100.00
26489;BME280;14169;43.684;10.484;2023-02-01T05:15:28;102370.13;;;5.05;100.00
26489;BME280;14169;43.684;10.484;2023-02-01T05:17:53;102375.41;;;5.11;100.00
26489;BME280;14169;43.684;10.484;2023-02-01T05:20:19;102366.84;;;5.14;100.00
26489;BME280;14169;43.684;10.484;2023-02-01T05:22:44;102377.19;;;5.15;100.00
26489;BME280;14169;43.684;10.484;2023-02-01T05:25:12;102370.25;;;5.11;100.00
26489;BME280;14169;43.684;10.484;2023-02-01T05:27:37;102362.50;;;5.11;100.00
26489;BME280;14169;43.684;10.484;2023-02-01T05:30:04;102368.59;;;5.15;100.00
26489;BME280;14169;43.684;10.484;2023-02-01T05:32:29;102372.91;;;5.16;100.00
26489;BME280;14169;43.684;10.484;2023-02-01T05:34:55;102360.88;;;5.16;100.00
26489;BME280;14169;43.684;10.484;2023-02-01T05:37:20;102368.69;;;5.21;100.00
26489;BME280;14169;43.684;10.484;2023-02-01T05:39:45;102369.53;;;5.21;100.00
26489;BME280;14169;43.684;10.484;2023-02-01T05:42:11;102371.31;;;5.22;100.00
26489;BME280;14169;43.684;10.484;2023-02-01T05:44:36;102380.81;;;5.25;100.00
26489;BME280;14169;43.684;10.484;2023-02-01T05:47:02;102377.34;;;5.23;100.00
26489;BME280;14169;43.684;10.484;2023-02-01T05:49:27;102376.56;;;5.27;100.00
26489;BME280;14169;43.684;10.484;2023-02-01T05:51:52;102375.69;;;5.28;100.00
26489;BME280;14169;43.684;10.484;2023-02-01T05:54:18;102383.53;;;5.34;100.00
26489;BME280;14169;43.684;10.484;2023-02-01T05:56:43;102387.03;;;5.37;100.00
26489;BME280;14169;43.684;10.484;2023-02-01T05:59:09;102374.91;;;5.33;100.00
26489;BME280;14169;43.684;10.484;2023-02-01T06:01:35;102374.06;;;5.33;100.00
26489;BME280;14169;43.684;10.484;2023-02-01T06:04:00;102374.09;;;5.36;100.00
26489;BME280;14169;43.684;10.484;2023-02-01T06:06:26;102374.13;;;5.37;100.00
26489;BME280;14169;43.684;10.484;2023-02-01T06:08:51;102373.22;;;5.37;100.00
26489;BME280;14169;43.684;10.484;2023-02-01T06:11:17;102368.94;;;5.36;100.00
26489;BME280;14169;43.684;10.484;2023-02-01T06:13:42;102371.50;;;5.34;100.00
26489;BME280;14169;43.684;10.484;2023-02-01T06:16:08;102369.72;;;5.32;100.00
26489;BME280;14169;43.684;10.484;2023-02-01T06:18:36;102376.69;;;5.36;100.00
26489;BME280;14169;43.684;10.484;2023-02-01T06:21:03;102374.91;;;5.33;100.00
26489;BME280;14169;43.684;10.484;2023-02-01T06:23:30;102375.88;;;5.38;100.00
26489;BME280;14169;43.684;10.484;2023-02-01T06:26:04;102363.88;;;5.45;100.00
26489;BME280;14169;43.684;10.484;2023-02-01T06:28:30;102362.25;;;5.48;100.00
26489;BME280;14169;43.684;10.484;2023-02-01T06:30:56;102366.56;;;5.51;100.00
26489;BME280;14169;43.684;10.484;2023-02-01T06:33:26;102367.41;;;5.48;100.00
26489;BME280;14169;43.684;10.484;2023-02-01T06:35:58;102366.53;;;5.48;100.00
26489;BME280;14169;43.684;10.484;2023-02-01T06:38:25;102372.53;;;5.45;100.00
26489;BME280;14169;43.684;10.484;2023-02-01T06:40:54;102381.19;;;5.49;100.00
26489;BME280;14169;43.684;10.484;2023-02-01T06:43:21;102385.53;;;5.50;100.00
26489;BME280;14169;43.684;10.484;2023-02-01T06:45:47;102373.44;;;5.49;100.00
26489;BME280;14169;43.684;10.484;2023-02-01T06:48:12;102385.44;;;5.47;100.00
26489;BME280;14169;43.684;10.484;2023-02-01T06:50:37;102385.44;;;5.45;100.00
26489;BME280;14169;43.684;10.484;2023-02-01T06:53:03;102385.41;;;5.44;100.00
26489;BME280;14169;43.684;10.484;2023-02-01T06:55:28;102382.88;;;5.47;100.00
26489;BME280;14169;43.684;10.484;2023-02-01T06:57:54;102383.66;;;5.43;100.00
26489;BME280;14169;43.684;10.484;2023-02-01T07:00:21;102382.84;;;5.44;100.00
26489;BME280;14169;43.684;10.484;2023-02-01T07:02:46;102383.66;;;5.43;100.00
26489;BME280;14169;43.684;10.484;2023-02-01T07:05:12;102380.19;;;5.41;100.00
26489;BME280;14169;43.684;10.484;2023-02-01T07:07:37;102394.00;;;5.41;100.00
26489;BME280;14169;43.684;10.484;2023-02-01T07:10:03;102395.75;;;5.44;100.00
26489;BME280;14169;43.684;10.484;2023-02-01T07:12:28;102397.56;;;5.49;100.00
26489;BME280;14169;43.684;10.484;2023-02-01T07:14:54;102400.25;;;5.55;100.00
26489;BME280;14169;43.684;10.484;2023-02-01T07:17:19;102400.31;;;5.60;100.00
26489;BME280;14169;43.684;10.484;2023-02-01T07:19:44;102396.03;;;5.60;100.00
26489;BME280;14169;43.684;10.484;2023-02-01T07:22:11;102395.25;;;5.66;100.00
26489;BME280;14169;43.684;10.484;2023-02-01T07:24:36;102399.59;;;5.70;100.00
26489;BME280;14169;43.684;10.484;2023-02-01T07:27:02;102410.88;;;5.75;100.00
26489;BME280;14169;43.684;10.484;2023-02-01T07:29:27;102407.47;;;5.77;100.00
26489;BME280;14169;43.684;10.484;2023-02-01T07:31:52;102404.97;;;5.82;100.00
26489;BME280;14169;43.684;10.484;2023-02-01T07:34:18;102405.03;;;5.87;100.00
26489;BME280;14169;43.684;10.484;2023-02-01T07:36:44;102407.69;;;5.93;100.00
26489;BME280;14169;43.684;10.484;2023-02-01T07:39:09;102400.88;;;5.99;100.00
26489;BME280;14169;43.684;10.484;2023-02-01T07:41:35;102395.75;;;6.02;100.00
26489;BME280;14169;43.684;10.484;2023-02-01T07:44:00;102402.72;;;6.09;100.00
26489;BME280;14169;43.684;10.484;2023-02-01T07:46:26;102405.41;;;6.17;100.00
26489;BME280;14169;43.684;10.484;2023-02-01T07:48:51;102402.88;;;6.20;100.00
26489;BME280;14169;43.684;10.484;2023-02-01T07:51:17;102405.47;;;6.21;100.00
26489;BME280;14169;43.684;10.484;2023-02-01T07:53:43;102407.25;;;6.22;100.00
26489;BME280;14169;43.684;10.484;2023-02-01T07:56:17;102410.66;;;6.23;100.00
26489;BME280;14169;43.684;10.484;2023-02-01T07:58:46;102413.25;;;6.21;100.00
26489;BME280;14169;43.684;10.484;2023-02-01T08:01:16;102412.41;;;6.22;100.00
26489;BME280;14169;43.684;10.484;2023-02-01T08:03:55;102415.75;;;6.17;100.00
26489;BME280;14169;43.684;10.484;2023-02-01T08:06:22;102422.69;;;6.18;100.00
26489;BME280;14169;43.684;10.484;2023-02-01T08:08:49;102420.19;;;6.24;100.00
26489;BME280;14169;43.684;10.484;2023-02-01T08:11:15;102426.25;;;6.26;100.00
26489;BME280;14169;43.684;10.484;2023-02-01T08:13:41;102434.91;;;6.29;100.00
26489;BME280;14169;43.684;10.484;2023-02-01T08:16:09;102426.31;;;6.30;100.00
26489;BME280;14169;43.684;10.484;2023-02-01T08:18:36;102424.63;;;6.32;100.00
26489;BME280;14169;43.684;10.484;2023-02-01T08:21:07;102426.41;;;6.38;100.00
26489;BME280;14169;43.684;10.484;2023-02-01T08:23:34;102425.59;;;6.40;100.00
26489;BME280;14169;43.684;10.484;2023-02-01T08:26:09;102417.84;;;6.45;100.00
26489;BME280;14169;43.684;10.484;2023-02-01T08:28:36;102423.16;;;6.57;100.00
26489;BME280;14169;43.684;10.484;2023-02-01T08:31:10;102427.66;;;6.70;100.00
26489;BME280;14169;43.684;10.484;2023-02-01T08:33:35;102425.19;;;6.82;100.00
26489;BME280;14169;43.684;10.484;2023-02-01T08:36:04;102420.16;;;6.96;100.00
26489;BME280;14169;43.684;10.484;2023-02-01T08:38:30;102418.50;;;7.05;100.00
26489;BME280;14169;43.684;10.484;2023-02-01T08:40:55;102419.47;;;7.15;100.00
26489;BME280;14169;43.684;10.484;2023-02-01T08:43:21;102421.28;;;7.23;100.00
26489;BME280;14169;43.684;10.484;2023-02-01T08:45:46;102423.06;;;7.30;100.00
26489;BME280;14169;43.684;10.484;2023-02-01T08:48:12;102428.34;;;7.41;100.00
26489;BME280;14169;43.684;10.484;2023-02-01T08:50:37;102415.44;;;7.47;100.00
26489;BME280;14169;43.684;10.484;2023-02-01T08:53:03;102424.19;;;7.58;100.00
26489;BME280;14169;43.684;10.484;2023-02-01T08:55:28;102426.00;;;7.70;100.00
26489;BME280;14169;43.684;10.484;2023-02-01T08:57:53;102432.94;;;7.74;100.00
26489;BME280;14169;43.684;10.484;2023-02-01T09:00:19;102426.03;;;7.74;100.00
26489;BME280;14169;43.684;10.484;2023-02-01T09:02:45;102435.53;;;7.72;100.00
26489;BME280;14169;43.684;10.484;2023-02-01T09:05:11;102430.31;;;7.69;100.00
26489;BME280;14169;43.684;10.484;2023-02-01T09:07:37;102428.59;;;7.71;100.00
26489;BME280;14169;43.684;10.484;2023-02-01T09:10:03;102427.78;;;7.80;100.00
26489;BME280;14169;43.684;10.484;2023-02-01T09:12:30;102421.81;;;7.90;100.00
26489;BME280;14169;43.684;10.484;2023-02-01T09:14:57;102428.72;;;7.88;100.00
26489;BME280;14169;43.684;10.484;2023-02-01T09:17:27;102431.28;;;7.85;100.00
26489;BME280;14169;43.684;10.484;2023-02-01T09:19:52;102431.31;;;7.86;100.00
26489;BME280;14169;43.684;10.484;2023-02-01T09:22:18;102429.56;;;7.87;100.00
26489;BME280;14169;43.684;10.484;2023-02-01T09:24:44;102434.78;;;7.88;100.00
26489;BME280;14169;43.684;10.484;2023-02-01T09:27:09;102432.19;;;7.91;100.00
26489;BME280;14169;43.684;10.484;2023-02-01T09:29:35;102425.28;;;7.90;100.00
26489;BME280;14169;43.684;10.484;2023-02-01T09:32:00;102424.44;;;7.97;100.00
26489;BME280;14169;43.684;10.484;2023-02-01T09:34:26;102430.50;;;7.99;100.00
26489;BME280;14169;43.684;10.484;2023-02-01T09:36:51;102427.94;;;8.07;100.00
26489;BME280;14169;43.684;10.484;2023-02-01T09:39:16;102424.53;;;8.14;100.00
26489;BME280;14169;43.684;10.484;2023-02-01T09:45:32;102424.63;;;8.36;100.00
26489;BME280;14169;43.684;10.484;2023-02-01T09:47:30;102424.69;;;8.53;100.00
26489;BME280;14169;43.684;10.484;2023-02-01T09:50:11;102428.22;;;8.66;100.00
26489;BME280;14169;43.684;10.484;2023-02-01T09:53:12;102429.09;;;8.74;100.00
26489;BME280;14169;43.684;10.484;2023-02-01T09:55:43;102429.13;;;8.90;100.00
26489;BME280;14169;43.684;10.484;2023-02-01T10:00:59;102430.06;;;9.13;100.00
26489;BME280;14169;43.684;10.484;2023-02-01T10:03:33;102431.81;;;9.27;100.00
26489;BME280;14169;43.684;10.484;2023-02-01T10:09:14;102431.81;;;9.34;100.00
26489;BME280;14169;43.684;10.484;2023-02-01T10:25:36;102415.81;;;10.83;100.00
26489;BME280;14169;43.684;10.484;2023-02-01T10:28:01;102414.94;;;10.80;100.00
26489;BME280;14169;43.684;10.484;2023-02-01T10:30:42;102406.25;;;10.81;100.00
26489;BME280;14169;43.684;10.484;2023-02-01T10:35:40;102403.50;;;11.04;100.00
26489;BME280;14169;43.684;10.484;2023-02-01T10:38:24;102403.31;;;11.25;100.00
26489;BME280;14169;43.684;10.484;2023-02-01T10:40:53;102417.06;;;11.46;100.00
26489;BME280;14169;43.684;10.484;2023-02-01T10:43:20;102417.75;;;11.66;100.00
26489;BME280;14169;43.684;10.484;2023-02-01T10:45:46;102410.72;;;11.73;100.00
26489;BME280;14169;43.684;10.484;2023-02-01T10:48:12;102408.88;;;11.82;100.00
26489;BME280;14169;43.684;10.484;2023-02-01T10:50:48;102393.97;;;11.92;100.00
26489;BME280;14169;43.684;10.484;2023-02-01T10:53:23;102389.56;;;12.00;100.00
26489;BME280;14169;43.684;10.484;2023-02-01T10:55:52;102381.69;;;12.02;100.00
26489;BME280;14169;43.684;10.484;2023-02-01T10:58:20;102378.28;;;11.97;100.00
26489;BME280;14169;43.684;10.484;2023-02-01T11:00:57;102374.84;;;11.90;100.00
26489;BME280;14169;43.684;10.484;2023-02-01T11:06:01;102359.41;;;11.69;100.00
26489;BME280;14169;43.684;10.484;2023-02-01T11:08:28;102361.13;;;11.70;100.00
26489;BME280;14169;43.684;10.484;2023-02-01T11:11:03;102367.00;;;11.90;100.00
26489;BME280;14169;43.684;10.484;2023-02-01T11:13:32;102354.19;;;12.42;100.00
26489;BME280;14169;43.684;10.484;2023-02-01T11:16:02;102350.88;;;12.90;100.00
26489;BME280;14169;43.684;10.484;2023-02-01T11:18:31;102341.81;;;13.61;100.00
26489;BME280;14169;43.684;10.484;2023-02-01T11:20:56;102337.69;;;14.73;100.00
26489;BME280;14169;43.684;10.484;2023-02-01T11:23:25;102333.09;;;14.83;100.00
26489;BME280;14169;43.684;10.484;2023-02-01T11:26:12;102329.59;;;15.53;100.00
26489;BME280;14169;43.684;10.484;2023-02-01T11:28:40;102318.59;;;16.29;100.00
26489;BME280;14169;43.684;10.484;2023-02-01T11:31:11;102313.28;;;16.60;100.00
26489;BME280;14169;43.684;10.484;2023-02-01T11:33:41;102309.59;;;17.18;100.00
26489;BME280;14169;43.684;10.484;2023-02-01T11:36:14;102298.31;;;17.87;100.00
26489;BME280;14169;43.684;10.484;2023-02-01T11:39:07;102300.03;;;18.11;100.00
26489;BME280;14169;43.684;10.484;2023-02-01T11:41:31;102301.78;;;18.57;100.00
26489;BME280;14169;43.684;10.484;2023-02-01T11:43:59;102275.38;;;18.98;100.00
26489;BME280;14169;43.684;10.484;2023-02-01T11:46:32;102262.28;;;18.75;100.00
26489;BME280;14169;43.684;10.484;2023-02-01T11:49:23;102258.34;;;18.43;100.00
26489;BME280;14169;43.684;10.484;2023-02-01T11:52:22;102265.88;;;18.74;100.00
26489;BME280;14169;43.684;10.484;2023-02-01T11:57:50;102253.13;;;17.25;100.00
26489;BME280;14169;43.684;10.484;2023-02-01T12:22:49;102255.25;;;14.48;100.00
26489;BME280;14169;43.684;10.484;2023-02-01T12:40:14;102239.19;;;13.84;100.00
26489;BME280;14169;43.684;10.484;2023-02-01T12:43:11;102233.16;;;13.80;100.00
26489;BME280;14169;43.684;10.484;2023-02-01T12:45:52;102237.53;;;13.80;100.00
26489;BME280;14169;43.684;10.484;2023-02-01T12:48:41;102232.94;;;13.89;100.00
26489;BME280;14169;43.684;10.484;2023-02-01T12:51:14;102232.16;;;13.86;100.00
26489;BME280;14169;43.684;10.484;2023-02-01T12:56:40;102231.22;;;14.28;100.00
26489;BME280;14169;43.684;10.484;2023-02-01T12:59:44;102239.03;;;14.29;100.00
26489;BME280;14169;43.684;10.484;2023-02-01T13:02:33;102231.84;;;14.39;100.00
26489;BME280;14169;43.684;10.484;2023-02-01T13:05:11;102231.00;;;14.37;100.00
26489;BME280;14169;43.684;10.484;2023-02-01T13:08:08;102239.00;;;14.32;100.00
26489;BME280;14169;43.684;10.484;2023-02-01T13:10:43;102238.13;;;14.32;100.00
26489;BME280;14169;43.684;10.484;2023-02-01T13:15:43;102225.75;;;14.39;100.00
26489;BME280;14169;43.684;10.484;2023-02-01T13:18:17;102223.88;;;15.43;100.00
26489;BME280;14169;43.684;10.484;2023-02-01T13:20:51;102224.41;;;15.56;100.00
26489;BME280;14169;43.684;10.484;2023-02-01T13:23:30;102220.63;;;15.34;100.00
26489;BME280;14169;43.684;10.484;2023-02-01T13:25:57;102210.00;;;15.40;100.00
26489;BME280;14169;43.684;10.484;2023-02-01T13:28:28;102211.63;;;15.44;100.00
26489;BME280;14169;43.684;10.484;2023-02-01T13:35:03;102201.75;;;14.89;100.00
26489;BME280;14169;43.684;10.484;2023-02-01T13:45:37;102188.28;;;13.95;100.00
26489;BME280;14169;43.684;10.484;2023-02-01T13:48:19;102179.00;;;13.82;100.00
26489;BME280;14169;43.684;10.484;2023-02-01T13:50:51;102180.97;;;13.71;100.00
26489;BME280;14169;43.684;10.484;2023-02-01T13:56:29;102168.16;;;13.58;100.00
26489;BME280;14169;43.684;10.484;2023-02-01T13:58:48;102170.97;;;13.50;100.00
26489;BME280;14169;43.684;10.484;2023-02-01T14:11:37;102196.19;;;13.54;100.00
26489;BME280;14169;43.684;10.484;2023-02-01T14:17:29;102204.88;;;13.56;100.00
26489;BME280;14169;43.684;10.484;2023-02-01T14:19:33;102200.50;;;13.57;100.00
26489;BME280;14169;43.684;10.484;2023-02-01T14:22:01;102202.28;;;13.55;100.00
26489;BME280;14169;43.684;10.484;2023-02-01T14:24:53;102200.56;;;13.54;100.00
26489;BME280;14169;43.684;10.484;2023-02-01T14:27:34;102203.41;;;13.43;100.00
26489;BME280;14169;43.684;10.484;2023-02-01T14:30:05;102192.28;;;13.32;100.00
26489;BME280;14169;43.684;10.484;2023-02-01T14:32:37;102192.41;;;13.26;100.00
26489;BME280;14169;43.684;10.484;2023-02-01T14:35:08;102193.38;;;13.20;100.00
26489;BME280;14169;43.684;10.484;2023-02-01T14:37:42;102201.25;;;13.17;100.00
26489;BME280;14169;43.684;10.484;2023-02-01T14:42:48;102202.31;;;13.53;100.00
26489;BME280;14169;43.684;10.484;2023-02-01T14:50:41;102220.91;;;13.39;100.00
26489;BME280;14169;43.684;10.484;2023-02-01T15:00:55;102237.59;;;13.34;100.00
26489;BME280;14169;43.684;10.484;2023-02-01T15:06:24;102235.09;;;13.28;100.00
26489;BME280;14169;43.684;10.484;2023-02-01T15:08:54;102238.59;;;13.28;100.00
26489;BME280;14169;43.684;10.484;2023-02-01T15:11:21;102234.19;;;13.30;100.00
26489;BME280;14169;43.684;10.484;2023-02-01T15:13:51;102228.03;;;13.31;100.00
26489;BME280;14169;43.684;10.484;2023-02-01T15:16:20;102229.00;;;13.29;100.00
26489;BME280;14169;43.684;10.484;2023-02-01T15:18:45;102235.91;;;13.31;100.00
26489;BME280;14169;43.684;10.484;2023-02-01T15:21:22;102234.06;;;13.36;100.00
26489;BME280;14169;43.684;10.484;2023-02-01T15:23:48;102239.34;;;13.35;100.00
26489;BME280;14169;43.684;10.484;2023-02-01T15:26:29;102233.28;;;13.31;100.00
26489;BME280;14169;43.684;10.484;2023-02-01T15:28:57;102229.06;;;13.24;100.00